sensor_id;sensor_type;location;lat;lon;timestamp;temperature;humidity
4701;DHT22;8724;51.272;6.554;2023-07-16T00:00:36;23.80;99.90
4701;DHT22;8724;51.272;6.554;2023-07-16T00:03:06;23.70;99.90
4701;DHT22;8724;51.272;6.554;2023-07-16T00:05:36;23.80;99.90
4701;DHT22;8724;51.272;6.554;2023-07-16T00:08:05;23.70;99.90
4701;DHT22;8724;51.272;6.554;2023-07-16T00:10:34;23.70;99.90
4701;DHT22;8724;51.272;6.554;2023-07-16T00:13:03;23.60;99.90
4701;DHT22;8724;51.272;6.554;2023-07-16T00:15:31;23.60;99.90
4701;DHT22;8724;51.272;6.554;2023-07-16T00:18:00;23.60;99.90
4701;DHT22;8724;51.272;6.554;2023-07-16T00:20:31;23.50;99.90
4701;DHT22;8724;51.272;6.554;2023-07-16T00:22:59;23.50;99.90
4701;DHT22;8724;51.272;6.554;2023-07-16T00:25:28;23.50;99.90
4701;DHT22;8724;51.272;6.554;2023-07-16T00:27:57;23.50;99.90
4701;DHT22;8724;51.272;6.554;2023-07-16T00:30:26;23.50;99.90
4701;DHT22;8724;51.272;6.554;2023-07-16T00:32:54;23.50;99.90
4701;DHT22;8724;51.272;6.554;2023-07-16T00:35:23;23.50;99.90
4701;DHT22;8724;51.272;6.554;2023-07-16T00:37:53;23.40;99.90
4701;DHT22;8724;51.272;6.554;2023-07-16T00:40:21;23.40;99.90
4701;DHT22;8724;51.272;6.554;2023-07-16T00:42:50;23.50;99.90
4701;DHT22;8724;51.272;6.554;2023-07-16T00:45:18;23.40;99.90
4701;DHT22;8724;51.272;6.554;2023-07-16T00:47:47;23.50;99.90
4701;DHT22;8724;51.272;6.554;2023-07-16T00:50:17;23.40;99.90
4701;DHT22;8724;51.272;6.554;2023-07-16T00:52:46;23.40;99.90
4701;DHT22;8724;51.272;6.554;2023-07-16T00:55:16;23.40;99.90
4701;DHT22;8724;51.272;6.554;2023-07-16T00:57:45;23.40;99.90
4701;DHT22;8724;51.272;6.554;2023-07-16T01:00:14;23.40;99.90
4701;DHT22;8724;51.272;6.554;2023-07-16T01:02:43;23.40;99.90
4701;DHT22;8724;51.272;6.554;2023-07-16T01:05:12;23.30;99.90
4701;DHT22;8724;51.272;6.554;2023-07-16T01:07:55;23.40;99.90
4701;DHT22;8724;51.272;6.554;2023-07-16T01:10:27;23.30;99.90
4701;DHT22;8724;51.272;6.554;2023-07-16T01:12:57;23.30;99.90
4701;DHT22;8724;51.272;6.554;2023-07-16T01:15:26;23.30;99.90
4701;DHT22;8724;51.272;6.554;2023-07-16T01:17:55;23.30;99.90
4701;DHT22;8724;51.272;6.554;2023-07-16T01:20:24;23.30;99.90
4701;DHT22;8724;51.272;6.554;2023-07-16T01:23:07;23.30;99.90
4701;DHT22;8724;51.272;6.554;2023-07-16T01:26:02;23.30;99.90
4701;DHT22;8724;51.272;6.554;2023-07-16T01:28:49;23.30;99.90
4701;DHT22;8724;51.272;6.554;2023-07-16T01:31:23;23.20;99.90
4701;DHT22;8724;51.272;6.554;2023-07-16T01:33:52;23.20;99.90
4701;DHT22;8724;51.272;6.554;2023-07-16T01:36:23;23.20;99.90
4701;DHT22;8724;51.272;6.554;2023-07-16T01:38:52;23.20;99.90
4701;DHT22;8724;51.272;6.554;2023-07-16T01:41:21;23.20;99.90
4701;DHT22;8724;51.272;6.554;2023-07-16T01:43:50;23.20;99.90
4701;DHT22;8724;51.272;6.554;2023-07-16T01:46:18;23.20;99.90
4701;DHT22;8724;51.272;6.554;2023-07-16T01:48:48;23.20;99.90
4701;DHT22;8724;51.272;6.554;2023-07-16T01:51:17;23.10;99.90
4701;DHT22;8724;51.272;6.554;2023-07-16T01:53:47;23.10;99.90
4701;DHT22;8724;51.272;6.554;2023-07-16T01:56:15;23.10;99.90
4701;DHT22;8724;51.272;6.554;2023-07-16T01:58:47;23.10;99.90
4701;DHT22;8724;51.272;6.554;2023-07-16T02:01:17;23.10;99.90
4701;DHT22;8724;51.272;6.554;2023-07-16T02:03:47;23.10;99.90
4701;DHT22;8724;51.272;6.554;2023-07-16T02:06:15;23.10;99.90
4701;DHT22;8724;51.272;6.554;2023-07-16T02:08:44;23.10;99.90
4701;DHT22;8724;51.272;6.554;2023-07-16T02:11:13;23.10;99.90
4701;DHT22;8724;51.272;6.554;2023-07-16T02:13:41;23.10;99.90
4701;DHT22;8724;51.272;6.554;2023-07-16T02:16:09;23.10;99.90
4701;DHT22;8724;51.272;6.554;2023-07-16T02:18:40;23.10;99.90
4701;DHT22;8724;51.272;6.554;2023-07-16T02:21:10;23.10;99.90
4701;DHT22;8724;51.272;6.554;2023-07-16T02:23:38;23.10;99.90
4701;DHT22;8724;51.272;6.554;2023-07-16T02:26:06;23.10;99.90
4701;DHT22;8724;51.272;6.554;2023-07-16T02:28:35;23.10;99.90
4701;DHT22;8724;51.272;6.554;2023-07-16T02:31:04;23.10;99.90
4701;DHT22;8724;51.272;6.554;2023-07-16T02:33:33;23.10;99.90
4701;DHT22;8724;51.272;6.554;2023-07-16T02:36:01;23.10;99.90
4701;DHT22;8724;51.272;6.554;2023-07-16T02:38:31;23.00;99.90
4701;DHT22;8724;51.272;6.554;2023-07-16T02:40:59;23.00;99.90
4701;DHT22;8724;51.272;6.554;2023-07-16T02:43:28;23.00;99.90
4701;DHT22;8724;51.272;6.554;2023-07-16T02:45:56;23.00;99.90
4701;DHT22;8724;51.272;6.554;2023-07-16T02:48:24;23.00;99.90
4701;DHT22;8724;51.272;6.554;2023-07-16T02:50:53;23.00;99.90
4701;DHT22;8724;51.272;6.554;2023-07-16T02:53:21;23.00;99.90
4701;DHT22;8724;51.272;6.554;2023-07-16T02:55:51;23.00;99.90
4701;DHT22;8724;51.272;6.554;2023-07-16T02:58:19;23.00;99.90
4701;DHT22;8724;51.272;6.554;2023-07-16T03:00:48;23.00;99.90
4701;DHT22;8724;51.272;6.554;2023-07-16T03:03:16;23.00;99.90
4701;DHT22;8724;51.272;6.554;2023-07-16T03:05:45;23.00;99.90
4701;DHT22;8724;51.272;6.554;2023-07-16T03:08:13;22.90;99.90
4701;DHT22;8724;51.272;6.554;2023-07-16T03:10:41;22.90;99.90
4701;DHT22;8724;51.272;6.554;2023-07-16T03:13:12;22.90;99.90
4701;DHT22;8724;51.272;6.554;2023-07-16T03:15:41;22.90;99.90
4701;DHT22;8724;51.272;6.554;2023-07-16T03:18:09;22.90;99.90
4701;DHT22;8724;51.272;6.554;2023-07-16T03:20:38;22.90;99.90
4701;DHT22;8724;51.272;6.554;2023-07-16T03:23:06;22.90;99.90
4701;DHT22;8724;51.272;6.554;2023-07-16T03:25:35;22.80;99.90
4701;DHT22;8724;51.272;6.554;2023-07-16T03:28:04;22.80;99.90
4701;DHT22;8724;51.272;6.554;2023-07-16T03:30:33;22.80;99.90
4701;DHT22;8724;51.272;6.554;2023-07-16T03:33:03;22.80;99.90
4701;DHT22;8724;51.272;6.554;2023-07-16T03:35:31;22.80;99.90
4701;DHT22;8724;51.272;6.554;2023-07-16T03:38:00;22.80;99.90
4701;DHT22;8724;51.272;6.554;2023-07-16T03:40:30;22.80;99.90
4701;DHT22;8724;51.272;6.554;2023-07-16T03:42:58;22.80;99.90
4701;DHT22;8724;51.272;6.554;2023-07-16T03:45:27;22.70;99.90
4701;DHT22;8724;51.272;6.554;2023-07-16T03:47:57;22.70;99.90
4701;DHT22;8724;51.272;6.554;2023-07-16T03:50:25;22.70;99.90
4701;DHT22;8724;51.272;6.554;2023-07-16T03:52:55;22.70;99.90
4701;DHT22;8724;51.272;6.554;2023-07-16T03:55:23;22.70;99.90
4701;DHT22;8724;51.272;6.554;2023-07-16T03:57:55;22.70;99.90
4701;DHT22;8724;51.272;6.554;2023-07-16T04:00:23;22.90;99.90
4701;DHT22;8724;51.272;6.554;2023-07-16T04:02:52;22.60;99.90
4701;DHT22;8724;51.272;6.554;2023-07-16T04:05:22;22.70;99.90
4701;DHT22;8724;51.272;6.554;2023-07-16T04:07:51;22.60;99.90
4701;DHT22;8724;51.272;6.554;2023-07-16T04:10:19;22.60;99.90
4701;DHT22;8724;51.272;6.554;2023-07-16T04:12:48;22.50;99.90
4701;DHT22;8724;51.272;6.554;2023-07-16T04:15:16;22.50;99.90
4701;DHT22;8724;51.272;6.554;2023-07-16T04:17:45;22.50;99.90
4701;DHT22;8724;51.272;6.554;2023-07-16T04:20:13;22.50;99.90
4701;DHT22;8724;51.272;6.554;2023-07-16T04:22:43;22.50;99.90
4701;DHT22;8724;51.272;6.554;2023-07-16T04:25:12;22.50;99.90
4701;DHT22;8724;51.272;6.554;2023-07-16T04:27:40;22.40;99.90
4701;DHT22;8724;51.272;6.554;2023-07-16T04:30:11;22.40;99.90
4701;DHT22;8724;51.272;6.554;2023-07-16T04:32:39;22.40;99.90
4701;DHT22;8724;51.272;6.554;2023-07-16T04:35:08;22.40;99.90
4701;DHT22;8724;51.272;6.554;2023-07-16T04:37:37;22.40;99.90
4701;DHT22;8724;51.272;6.554;2023-07-16T04:40:08;22.40;99.90
4701;DHT22;8724;51.272;6.554;2023-07-16T04:42:37;22.30;99.90
4701;DHT22;8724;51.272;6.554;2023-07-16T04:45:06;22.30;99.90
4701;DHT22;8724;51.272;6.554;2023-07-16T04:47:34;22.30;99.90
4701;DHT22;8724;51.272;6.554;2023-07-16T04:50:03;22.30;99.90
4701;DHT22;8724;51.272;6.554;2023-07-16T04:52:32;22.30;99.90
4701;DHT22;8724;51.272;6.554;2023-07-16T04:55:01;22.30;99.90
4701;DHT22;8724;51.272;6.554;2023-07-16T04:57:32;22.30;99.90
4701;DHT22;8724;51.272;6.554;2023-07-16T05:00:01;22.30;99.90
4701;DHT22;8724;51.272;6.554;2023-07-16T05:02:29;22.30;99.90
4701;DHT22;8724;51.272;6.554;2023-07-16T05:04:58;22.30;99.90
4701;DHT22;8724;51.272;6.554;2023-07-16T05:07:26;22.30;99.90
4701;DHT22;8724;51.272;6.554;2023-07-16T05:09:55;22.30;99.90
4701;DHT22;8724;51.272;6.554;2023-07-16T05:12:23;22.30;99.90
4701;DHT22;8724;51.272;6.554;2023-07-16T05:14:53;22.30;99.90
4701;DHT22;8724;51.272;6.554;2023-07-16T05:17:22;22.30;99.90
4701;DHT22;8724;51.272;6.554;2023-07-16T05:19:50;22.20;99.90
4701;DHT22;8724;51.272;6.554;2023-07-16T05:22:19;22.30;99.90
4701;DHT22;8724;51.272;6.554;2023-07-16T05:24:47;22.20;99.90
4701;DHT22;8724;51.272;6.554;2023-07-16T05:27:16;22.20;99.90
4701;DHT22;8724;51.272;6.554;2023-07-16T05:29:44;22.20;99.90
4701;DHT22;8724;51.272;6.554;2023-07-16T05:32:14;22.20;99.90
4701;DHT22;8724;51.272;6.554;2023-07-16T05:34:43;22.20;99.90
4701;DHT22;8724;51.272;6.554;2023-07-16T05:37:11;22.20;99.90
4701;DHT22;8724;51.272;6.554;2023-07-16T05:39:40;22.20;99.90
4701;DHT22;8724;51.272;6.554;2023-07-16T05:42:08;22.20;99.90
4701;DHT22;8724;51.272;6.554;2023-07-16T05:44:36;22.20;99.90
4701;DHT22;8724;51.272;6.554;2023-07-16T05:47:05;22.20;99.90
4701;DHT22;8724;51.272;6.554;2023-07-16T05:49:36;22.10;99.90
4701;DHT22;8724;51.272;6.554;2023-07-16T05:52:05;22.20;99.90
4701;DHT22;8724;51.272;6.554;2023-07-16T05:54:35;22.20;99.90
4701;DHT22;8724;51.272;6.554;2023-07-16T05:57:04;22.20;99.90
4701;DHT22;8724;51.272;6.554;2023-07-16T05:59:33;22.10;99.90
4701;DHT22;8724;51.272;6.554;2023-07-16T06:02:05;22.10;99.90
4701;DHT22;8724;51.272;6.554;2023-07-16T06:04:34;22.10;99.90
4701;DHT22;8724;51.272;6.554;2023-07-16T06:07:04;22.10;99.90
4701;DHT22;8724;51.272;6.554;2023-07-16T06:09:33;22.10;99.90
4701;DHT22;8724;51.272;6.554;2023-07-16T06:12:01;22.10;99.90
4701;DHT22;8724;51.272;6.554;2023-07-16T06:14:30;22.10;99.90
4701;DHT22;8724;51.272;6.554;2023-07-16T06:16:58;22.10;99.90
4701;DHT22;8724;51.272;6.554;2023-07-16T06:19:27;22.10;99.90
4701;DHT22;8724;51.272;6.554;2023-07-16T06:21:56;22.10;99.90
4701;DHT22;8724;51.272;6.554;2023-07-16T06:24:26;22.10;99.90
4701;DHT22;8724;51.272;6.554;2023-07-16T06:26:54;22.00;99.90
4701;DHT22;8724;51.272;6.554;2023-07-16T06:29:23;22.10;99.90
4701;DHT22;8724;51.272;6.554;2023-07-16T06:31:54;22.00;99.90
4701;DHT22;8724;51.272;6.554;2023-07-16T06:34:24;22.10;99.90
4701;DHT22;8724;51.272;6.554;2023-07-16T06:36:53;22.10;99.90
4701;DHT22;8724;51.272;6.554;2023-07-16T06:39:21;22.00;99.90
4701;DHT22;8724;51.272;6.554;2023-07-16T06:41:51;22.00;99.90
4701;DHT22;8724;51.272;6.554;2023-07-16T06:44:22;22.00;99.90
4701;DHT22;8724;51.272;6.554;2023-07-16T06:46:50;22.00;99.90
4701;DHT22;8724;51.272;6.554;2023-07-16T06:49:19;22.00;99.90
4701;DHT22;8724;51.272;6.554;2023-07-16T06:51:48;22.00;99.90
4701;DHT22;8724;51.272;6.554;2023-07-16T06:54:16;22.00;99.90
4701;DHT22;8724;51.272;6.554;2023-07-16T06:56:44;22.00;99.90
4701;DHT22;8724;51.272;6.554;2023-07-16T06:59:14;22.00;99.90
4701;DHT22;8724;51.272;6.554;2023-07-16T07:01:43;22.00;99.90
4701;DHT22;8724;51.272;6.554;2023-07-16T07:04:11;22.00;99.90
4701;DHT22;8724;51.272;6.554;2023-07-16T07:06:40;22.00;99.90
4701;DHT22;8724;51.272;6.554;2023-07-16T07:09:08;22.00;99.90
4701;DHT22;8724;51.272;6.554;2023-07-16T07:11:37;22.00;99.90
4701;DHT22;8724;51.272;6.554;2023-07-16T07:14:05;22.00;99.90
4701;DHT22;8724;51.272;6.554;2023-07-16T07:16:38;22.00;99.90
4701;DHT22;8724;51.272;6.554;2023-07-16T07:19:08;22.00;99.90
4701;DHT22;8724;51.272;6.554;2023-07-16T07:21:36;22.00;99.90
4701;DHT22;8724;51.272;6.554;2023-07-16T07:24:05;22.00;99.90
4701;DHT22;8724;51.272;6.554;2023-07-16T07:26:34;22.00;99.90
4701;DHT22;8724;51.272;6.554;2023-07-16T07:29:02;22.00;99.90
4701;DHT22;8724;51.272;6.554;2023-07-16T07:31:31;22.00;99.90
4701;DHT22;8724;51.272;6.554;2023-07-16T07:34:00;22.00;99.90
4701;DHT22;8724;51.272;6.554;2023-07-16T07:36:29;22.00;99.90
4701;DHT22;8724;51.272;6.554;2023-07-16T07:38:58;22.00;99.90
4701;DHT22;8724;51.272;6.554;2023-07-16T07:41:26;22.00;99.90
4701;DHT22;8724;51.272;6.554;2023-07-16T07:43:55;22.00;99.90
4701;DHT22;8724;51.272;6.554;2023-07-16T07:46:23;22.10;99.90
4701;DHT22;8724;51.272;6.554;2023-07-16T07:48:52;22.10;99.90
4701;DHT22;8724;51.272;6.554;2023-07-16T07:51:22;22.10;99.90
4701;DHT22;8724;51.272;6.554;2023-07-16T07:53:51;22.10;99.90
4701;DHT22;8724;51.272;6.554;2023-07-16T07:56:19;22.10;99.90
4701;DHT22;8724;51.272;6.554;2023-07-16T07:58:47;22.10;99.90
4701;DHT22;8724;51.272;6.554;2023-07-16T08:01:16;22.10;99.90
4701;DHT22;8724;51.272;6.554;2023-07-16T08:03:44;22.10;99.90
4701;DHT22;8724;51.272;6.554;2023-07-16T08:06:13;22.10;99.90
4701;DHT22;8724;51.272;6.554;2023-07-16T08:08:43;22.10;99.90
4701;DHT22;8724;51.272;6.554;2023-07-16T08:11:12;22.20;99.90
4701;DHT22;8724;51.272;6.554;2023-07-16T08:13:40;22.50;99.90
4701;DHT22;8724;51.272;6.554;2023-07-16T08:16:09;22.20;99.90
4701;DHT22;8724;51.272;6.554;2023-07-16T08:18:37;22.20;99.90
4701;DHT22;8724;51.272;6.554;2023-07-16T08:21:06;22.20;99.90
4701;DHT22;8724;51.272;6.554;2023-07-16T08:23:34;22.20;99.90
4701;DHT22;8724;51.272;6.554;2023-07-16T08:26:04;22.20;99.90
4701;DHT22;8724;51.272;6.554;2023-07-16T08:28:33;22.30;99.90
4701;DHT22;8724;51.272;6.554;2023-07-16T08:31:01;22.20;99.90
4701;DHT22;8724;51.272;6.554;2023-07-16T08:33:30;22.20;99.90
4701;DHT22;8724;51.272;6.554;2023-07-16T08:35:58;22.20;99.90
4701;DHT22;8724;51.272;6.554;2023-07-16T08:38:27;22.20;99.90
4701;DHT22;8724;51.272;6.554;2023-07-16T08:40:55;22.20;99.90
4701;DHT22;8724;51.272;6.554;2023-07-16T08:43:25;22.20;99.90
4701;DHT22;8724;51.272;6.554;2023-07-16T08:45:54;22.20;99.90
4701;DHT22;8724;51.272;6.554;2023-07-16T08:48:23;22.30;99.90
4701;DHT22;8724;51.272;6.554;2023-07-16T08:50:52;22.30;99.90
4701;DHT22;8724;51.272;6.554;2023-07-16T08:53:21;22.30;99.90
4701;DHT22;8724;51.272;6.554;2023-07-16T08:55:49;22.30;99.90
4701;DHT22;8724;51.272;6.554;2023-07-16T08:58:24;22.30;99.90
4701;DHT22;8724;51.272;6.554;2023-07-16T09:00:53;22.40;99.90
4701;DHT22;8724;51.272;6.554;2023-07-16T09:03:22;22.30;99.90
4701;DHT22;8724;51.272;6.554;2023-07-16T09:05:51;22.30;99.90
4701;DHT22;8724;51.272;6.554;2023-07-16T09:08:19;22.30;99.90
4701;DHT22;8724;51.272;6.554;2023-07-16T09:10:54;22.40;99.90
4701;DHT22;8724;51.272;6.554;2023-07-16T09:13:24;22.40;99.90
4701;DHT22;8724;51.272;6.554;2023-07-16T09:15:54;22.40;99.90
4701;DHT22;8724;51.272;6.554;2023-07-16T09:18:25;22.50;99.90
4701;DHT22;8724;51.272;6.554;2023-07-16T09:20:57;22.40;99.90
4701;DHT22;8724;51.272;6.554;2023-07-16T09:23:25;22.50;99.90
4701;DHT22;8724;51.272;6.554;2023-07-16T09:25:55;22.40;99.90
4701;DHT22;8724;51.272;6.554;2023-07-16T09:28:25;22.40;99.90
4701;DHT22;8724;51.272;6.554;2023-07-16T09:30:53;22.50;99.90
4701;DHT22;8724;51.272;6.554;2023-07-16T09:33:22;22.50;99.90
4701;DHT22;8724;51.272;6.554;2023-07-16T09:35:53;22.50;99.90
4701;DHT22;8724;51.272;6.554;2023-07-16T09:38:22;22.50;99.90
4701;DHT22;8724;51.272;6.554;2023-07-16T09:40:52;22.60;99.90
4701;DHT22;8724;51.272;6.554;2023-07-16T09:43:22;22.50;99.90
4701;DHT22;8724;51.272;6.554;2023-07-16T09:45:51;22.50;99.90
4701;DHT22;8724;51.272;6.554;2023-07-16T09:48:20;22.60;99.90
4701;DHT22;8724;51.272;6.554;2023-07-16T09:50:51;22.60;99.90
4701;DHT22;8724;51.272;6.554;2023-07-16T09:53:21;22.60;99.90
4701;DHT22;8724;51.272;6.554;2023-07-16T09:55:53;22.60;99.90
4701;DHT22;8724;51.272;6.554;2023-07-16T09:58:23;22.60;99.90
4701;DHT22;8724;51.272;6.554;2023-07-16T10:00:54;22.70;99.90
4701;DHT22;8724;51.272;6.554;2023-07-16T10:03:23;22.70;99.90
4701;DHT22;8724;51.272;6.554;2023-07-16T10:05:51;22.70;99.90
4701;DHT22;8724;51.272;6.554;2023-07-16T10:08:20;22.70;99.90
4701;DHT22;8724;51.272;6.554;2023-07-16T10:10:52;22.70;99.90
4701;DHT22;8724;51.272;6.554;2023-07-16T10:13:22;22.70;99.90
4701;DHT22;8724;51.272;6.554;2023-07-16T10:15:54;22.80;99.90
4701;DHT22;8724;51.272;6.554;2023-07-16T10:18:24;22.80;99.90
4701;DHT22;8724;51.272;6.554;2023-07-16T10:20:59;22.80;99.90
4701;DHT22;8724;51.272;6.554;2023-07-16T10:23:37;22.80;99.90
4701;DHT22;8724;51.272;6.554;2023-07-16T10:26:06;22.80;99.90
4701;DHT22;8724;51.272;6.554;2023-07-16T10:28:37;22.80;99.90
4701;DHT22;8724;51.272;6.554;2023-07-16T10:31:17;22.90;99.90
4701;DHT22;8724;51.272;6.554;2023-07-16T10:33:57;22.90;99.90
4701;DHT22;8724;51.272;6.554;2023-07-16T10:36:26;22.80;99.90
4701;DHT22;8724;51.272;6.554;2023-07-16T10:38:54;22.90;99.90
4701;DHT22;8724;51.272;6.554;2023-07-16T10:41:23;22.90;99.90
4701;DHT22;8724;51.272;6.554;2023-07-16T10:43:51;22.90;99.90
4701;DHT22;8724;51.272;6.554;2023-07-16T10:46:23;22.90;99.90
4701;DHT22;8724;51.272;6.554;2023-07-16T10:48:52;22.90;99.90
4701;DHT22;8724;51.272;6.554;2023-07-16T10:51:25;23.00;99.90
4701;DHT22;8724;51.272;6.554;2023-07-16T10:53:55;22.90;99.90
4701;DHT22;8724;51.272;6.554;2023-07-16T10:56:24;23.00;99.90
4701;DHT22;8724;51.272;6.554;2023-07-16T10:58:53;23.00;99.90
4701;DHT22;8724;51.272;6.554;2023-07-16T11:01:22;23.00;99.90
4701;DHT22;8724;51.272;6.554;2023-07-16T11:03:51;22.90;99.90
4701;DHT22;8724;51.272;6.554;2023-07-16T11:06:20;23.00;99.90
4701;DHT22;8724;51.272;6.554;2023-07-16T11:08:49;23.00;99.90
4701;DHT22;8724;51.272;6.554;2023-07-16T11:11:28;23.00;99.90
4701;DHT22;8724;51.272;6.554;2023-07-16T11:13:57;23.00;99.90
4701;DHT22;8724;51.272;6.554;2023-07-16T11:16:26;23.00;99.90
4701;DHT22;8724;51.272;6.554;2023-07-16T11:18:56;23.00;99.90
4701;DHT22;8724;51.272;6.554;2023-07-16T11:21:24;23.00;99.90
4701;DHT22;8724;51.272;6.554;2023-07-16T11:23:53;23.10;99.90
4701;DHT22;8724;51.272;6.554;2023-07-16T11:26:21;23.00;99.90
4701;DHT22;8724;51.272;6.554;2023-07-16T11:28:51;23.00;99.90
4701;DHT22;8724;51.272;6.554;2023-07-16T11:31:19;23.10;99.90
4701;DHT22;8724;51.272;6.554;2023-07-16T11:33:52;23.10;99.90
4701;DHT22;8724;51.272;6.554;2023-07-16T11:36:20;23.10;99.90
4701;DHT22;8724;51.272;6.554;2023-07-16T11:38:49;23.10;99.90
4701;DHT22;8724;51.272;6.554;2023-07-16T11:41:20;23.10;99.90
4701;DHT22;8724;51.272;6.554;2023-07-16T11:43:49;23.10;99.90
4701;DHT22;8724;51.272;6.554;2023-07-16T11:46:18;23.10;99.90
4701;DHT22;8724;51.272;6.554;2023-07-16T11:48:47;23.10;99.90
4701;DHT22;8724;51.272;6.554;2023-07-16T11:51:17;23.10;99.90
4701;DHT22;8724;51.272;6.554;2023-07-16T11:53:45;23.10;99.90
4701;DHT22;8724;51.272;6.554;2023-07-16T11:56:13;23.10;99.90
4701;DHT22;8724;51.272;6.554;2023-07-16T11:58:42;23.10;99.90
4701;DHT22;8724;51.272;6.554;2023-07-16T12:01:11;23.10;99.90
4701;DHT22;8724;51.272;6.554;2023-07-16T12:03:40;23.10;99.90
4701;DHT22;8724;51.272;6.554;2023-07-16T12:06:09;23.20;99.90
4701;DHT22;8724;51.272;6.554;2023-07-16T12:08:38;23.20;99.90
4701;DHT22;8724;51.272;6.554;2023-07-16T12:11:07;23.10;99.90
4701;DHT22;8724;51.272;6.554;2023-07-16T12:13:35;23.20;99.90
4701;DHT22;8724;51.272;6.554;2023-07-16T12:16:04;23.20;99.90
4701;DHT22;8724;51.272;6.554;2023-07-16T12:18:33;23.20;99.90
4701;DHT22;8724;51.272;6.554;2023-07-16T12:21:02;23.20;99.90
4701;DHT22;8724;51.272;6.554;2023-07-16T12:23:30;23.20;99.90
4701;DHT22;8724;51.272;6.554;2023-07-16T12:26:00;23.30;99.90
4701;DHT22;8724;51.272;6.554;2023-07-16T12:28:29;23.30;99.90
4701;DHT22;8724;51.272;6.554;2023-07-16T12:30:57;23.20;99.90
4701;DHT22;8724;51.272;6.554;2023-07-16T12:33:26;23.30;99.90
4701;DHT22;8724;51.272;6.554;2023-07-16T12:35:54;23.30;99.90
4701;DHT22;8724;51.272;6.554;2023-07-16T12:38:23;23.30;99.90
4701;DHT22;8724;51.272;6.554;2023-07-16T12:40:51;23.30;99.90
4701;DHT22;8724;51.272;6.554;2023-07-16T12:43:21;23.40;99.90
4701;DHT22;8724;51.272;6.554;2023-07-16T12:45:50;23.40;99.90
4701;DHT22;8724;51.272;6.554;2023-07-16T12:48:18;23.40;99.90
4701;DHT22;8724;51.272;6.554;2023-07-16T12:50:47;23.40;99.90
4701;DHT22;8724;51.272;6.554;2023-07-16T12:53:16;23.50;99.90
4701;DHT22;8724;51.272;6.554;2023-07-16T12:55:44;23.50;99.90
4701;DHT22;8724;51.272;6.554;2023-07-16T12:58:12;23.50;99.90
4701;DHT22;8724;51.272;6.554;2023-07-16T13:00:42;23.50;99.90
4701;DHT22;8724;51.272;6.554;2023-07-16T13:03:12;23.60;99.90
4701;DHT22;8724;51.272;6.554;2023-07-16T13:05:44;23.60;99.90
4701;DHT22;8724;51.272;6.554;2023-07-16T13:08:12;23.60;99.90
4701;DHT22;8724;51.272;6.554;2023-07-16T13:10:41;23.60;99.90
4701;DHT22;8724;51.272;6.554;2023-07-16T13:13:10;23.60;99.90
4701;DHT22;8724;51.272;6.554;2023-07-16T13:15:38;23.60;99.90
4701;DHT22;8724;51.272;6.554;2023-07-16T13:18:09;23.60;99.90
4701;DHT22;8724;51.272;6.554;2023-07-16T13:20:38;23.60;99.90
4701;DHT22;8724;51.272;6.554;2023-07-16T13:23:07;23.50;99.90
4701;DHT22;8724;51.272;6.554;2023-07-16T13:25:36;23.60;99.90
4701;DHT22;8724;51.272;6.554;2023-07-16T13:28:05;23.60;99.90
4701;DHT22;8724;51.272;6.554;2023-07-16T13:30:34;23.70;99.90
4701;DHT22;8724;51.272;6.554;2023-07-16T13:33:03;23.70;99.90
4701;DHT22;8724;51.272;6.554;2023-07-16T13:35:33;23.70;99.90
4701;DHT22;8724;51.272;6.554;2023-07-16T13:38:01;23.80;99.90
4701;DHT22;8724;51.272;6.554;2023-07-16T13:40:29;23.80;99.90
4701;DHT22;8724;51.272;6.554;2023-07-16T13:42:58;23.80;99.90
4701;DHT22;8724;51.272;6.554;2023-07-16T13:45:26;23.80;99.90
4701;DHT22;8724;51.272;6.554;2023-07-16T13:47:55;23.90;99.90
4701;DHT22;8724;51.272;6.554;2023-07-16T13:50:23;23.90;99.90
4701;DHT22;8724;51.272;6.554;2023-07-16T13:52:53;23.90;99.90
4701;DHT22;8724;51.272;6.554;2023-07-16T13:55:24;23.90;99.90
4701;DHT22;8724;51.272;6.554;2023-07-16T13:57:53;24.00;99.90
4701;DHT22;8724;51.272;6.554;2023-07-16T14:00:22;23.90;99.90
4701;DHT22;8724;51.272;6.554;2023-07-16T14:02:51;24.00;99.90
4701;DHT22;8724;51.272;6.554;2023-07-16T14:05:20;24.00;99.90
4701;DHT22;8724;51.272;6.554;2023-07-16T14:07:49;24.10;99.90
4701;DHT22;8724;51.272;6.554;2023-07-16T14:10:19;24.10;99.90
4701;DHT22;8724;51.272;6.554;2023-07-16T14:12:48;24.20;99.90
4701;DHT22;8724;51.272;6.554;2023-07-16T14:15:16;24.30;99.90
4701;DHT22;8724;51.272;6.554;2023-07-16T14:17:45;24.30;99.90
4701;DHT22;8724;51.272;6.554;2023-07-16T14:20:14;24.40;99.90
4701;DHT22;8724;51.272;6.554;2023-07-16T14:22:42;24.40;99.90
4701;DHT22;8724;51.272;6.554;2023-07-16T14:25:11;24.50;99.90
4701;DHT22;8724;51.272;6.554;2023-07-16T14:27:41;24.60;99.90
4701;DHT22;8724;51.272;6.554;2023-07-16T14:30:10;24.60;99.90
4701;DHT22;8724;51.272;6.554;2023-07-16T14:32:39;24.60;99.90
4701;DHT22;8724;51.272;6.554;2023-07-16T14:35:09;24.60;99.90
4701;DHT22;8724;51.272;6.554;2023-07-16T14:37:56;24.70;99.90
4701;DHT22;8724;51.272;6.554;2023-07-16T14:40:26;24.70;99.90
4701;DHT22;8724;51.272;6.554;2023-07-16T14:42:55;24.70;99.90
4701;DHT22;8724;51.272;6.554;2023-07-16T14:45:24;24.70;99.90
4701;DHT22;8724;51.272;6.554;2023-07-16T14:47:53;24.70;99.90
4701;DHT22;8724;51.272;6.554;2023-07-16T14:50:22;24.60;99.90
4701;DHT22;8724;51.272;6.554;2023-07-16T14:52:50;24.30;99.90
4701;DHT22;8724;51.272;6.554;2023-07-16T14:55:19;24.60;99.90
4701;DHT22;8724;51.272;6.554;2023-07-16T14:57:48;24.70;99.90
4701;DHT22;8724;51.272;6.554;2023-07-16T15:00:18;24.60;99.90
4701;DHT22;8724;51.272;6.554;2023-07-16T15:02:47;24.60;99.90
4701;DHT22;8724;51.272;6.554;2023-07-16T15:05:15;24.70;99.90
4701;DHT22;8724;51.272;6.554;2023-07-16T15:07:44;24.70;99.90
4701;DHT22;8724;51.272;6.554;2023-07-16T15:10:12;24.70;99.90
4701;DHT22;8724;51.272;6.554;2023-07-16T15:12:41;24.70;99.90
4701;DHT22;8724;51.272;6.554;2023-07-16T15:15:12;24.70;99.90
4701;DHT22;8724;51.272;6.554;2023-07-16T15:17:42;24.70;99.90
4701;DHT22;8724;51.272;6.554;2023-07-16T15:20:11;24.70;99.90
4701;DHT22;8724;51.272;6.554;2023-07-16T15:22:40;24.60;99.90
4701;DHT22;8724;51.272;6.554;2023-07-16T15:25:09;24.70;99.90
4701;DHT22;8724;51.272;6.554;2023-07-16T15:27:39;24.70;99.90
4701;DHT22;8724;51.272;6.554;2023-07-16T15:30:08;24.80;99.90
4701;DHT22;8724;51.272;6.554;2023-07-16T15:32:36;24.80;99.90
4701;DHT22;8724;51.272;6.554;2023-07-16T15:35:07;24.90;99.90
4701;DHT22;8724;51.272;6.554;2023-07-16T15:37:36;24.90;99.90
4701;DHT22;8724;51.272;6.554;2023-07-16T15:40:13;24.90;99.90
4701;DHT22;8724;51.272;6.554;2023-07-16T15:42:42;24.90;99.90
4701;DHT22;8724;51.272;6.554;2023-07-16T15:45:11;24.90;99.90
4701;DHT22;8724;51.272;6.554;2023-07-16T15:47:43;24.90;99.90
4701;DHT22;8724;51.272;6.554;2023-07-16T15:50:13;24.90;99.90
4701;DHT22;8724;51.272;6.554;2023-07-16T15:52:41;24.90;99.90
4701;DHT22;8724;51.272;6.554;2023-07-16T15:55:10;24.80;99.90
4701;DHT22;8724;51.272;6.554;2023-07-16T15:57:38;24.80;99.90
4701;DHT22;8724;51.272;6.554;2023-07-16T16:00:09;24.80;99.90
4701;DHT22;8724;51.272;6.554;2023-07-16T16:02:41;24.70;99.90
4701;DHT22;8724;51.272;6.554;2023-07-16T16:05:11;24.70;99.90
4701;DHT22;8724;51.272;6.554;2023-07-16T16:07:42;24.70;99.90
4701;DHT22;8724;51.272;6.554;2023-07-16T16:10:12;24.70;99.90
4701;DHT22;8724;51.272;6.554;2023-07-16T16:12:40;24.70;99.90
4701;DHT22;8724;51.272;6.554;2023-07-16T16:15:09;24.60;99.90